Alabama A and M, Alabama
Current Conditions -  °F | °C
As of 8:35 AM on Sunday 23 Nov 2014 (Local Time) from KMDQ Reporting Station
Heavy Rain Heavy Rain  
Wind Chill: 54°   Ceiling: 1000
Heat Index: 54°   Visibility: 3mi
Dew Point: 48°   Wind: 9mph
Humidity: 82%   Direction: 140°SE
Pressure: 29.87"   Gusts: 22mph
Location:  34.7869°N, 86.5719°W
Report Text: KMDQ 231435Z AUTO 14008G19KT 3SM +RA BKN010 OVC013 12/09 A2987 RMK AO2 P0002
Loading
Personal Weather Stations






























Interactive Weather Map New forecast layout! Learn more

10-Day Weather Forecast

Advertisements
Track Severe Weather on mobile